Cambridge / Reid's Field

CPE4 · Ontario, Canada

METAR history CPE4 · Cambridge / Reid's Field

Below you see METARs of the last few days. Select a year to browse through older METARs, from the year 2007 onwards.

November 26, 2022

Time Code Weather Temp. Visibility Ceiling Wind METAR/SPECI
10:00
V
5 °C 9 mi - 240° 240° 14 kt METAR CYKF 261500Z AUTO 24014KT 9SM CLR 05/M01 A2997 RMK SLP161
09:00
V
2 °C 9 mi - 240° 240° 9 kt METAR CYKF 261400Z AUTO 24009KT 9SM CLR 02/M01 A2999 RMK SLP166
08:00
V
0 °C 9 mi - 220° 220° 6 kt METAR CYKF 261300Z AUTO 22006KT 9SM CLR M00/M01 A3000 RMK SLP172
07:00
V
-1 °C 9 mi - 240° 240° 5 kt METAR CYKF 261200Z AUTO 24005KT 9SM CLR M01/M02 A3001 RMK SLP174
06:00
V
-1 °C 9 mi - 210° 210° 6 kt METAR CYKF 261100Z AUTO 21006KT 9SM CLR M01/M02 A3001 RMK SLP176
05:00
V
-1 °C 9 mi - 200° 200° 5 kt METAR CYKF 261000Z AUTO 20005KT 9SM CLR M01/M02 A3001 RMK SLP176
04:00
V
-2 °C 9 mi - 240° 240° 5 kt METAR CYKF 260900Z AUTO 24005KT 9SM CLR M02/M03 A3002 RMK SLP181
03:00
V
-2 °C 9 mi - 230° 230° 4 kt METAR CYKF 260800Z AUTO 23004KT 9SM CLR M02/M03 A3002 RMK SLP178
02:00
V
-1 °C 9 mi - 230° 230° 4 kt METAR CYKF 260700Z AUTO 23004KT 9SM CLR M01/M03 A3003 RMK SLP182
01:00
V
-1 °C 9 mi - 210° 210° 4 kt METAR CYKF 260600Z AUTO 21004KT 9SM CLR M01/M02 A3004 RMK SLP185
00:00
V
0 °C 9 mi - 220° 220° 4 kt METAR CYKF 260500Z AUTO 22004KT 9SM CLR M00/M02 A3005 RMK SLP187

November 25, 2022

Time Code Weather Temp. Visibility Ceiling Wind METAR/SPECI
23:00
V
0 °C 9 mi - 250° 250° 5 kt METAR CYKF 260400Z AUTO 25005KT 9SM CLR M00/M02 A3004 RMK SLP184
22:00
V
2 °C 9 mi - 260° 260° 5 kt METAR CYKF 260300Z AUTO 26005KT 9SM SCT035 02/M02 A3004 RMK SLP185
21:00
V
3 °C 9 mi 3,700 ft 270° 270° 7 kt METAR CYKF 260200Z AUTO 27007KT 9SM OVC037 03/M01 A3004 RMK SLP184
20:00
V
3 °C 9 mi 3,700 ft 280° 280° 8 kt METAR CYKF 260100Z AUTO 28008KT 9SM OVC037 03/M01 A3002 RMK SLP179
19:00
V
3 °C 9 mi 3,900 ft 280° 280° 9 kt METAR CYKF 260000Z AUTO 28009KT 9SM OVC039 03/M01 A3002 RMK SLP178
18:00
V
4 °C 9 mi 3,700 ft 280° 280° 11 kt METAR CYKF 252300Z AUTO 28011KT 9SM OVC037 04/M01 A3002 RMK SLP175
17:00
V
4 °C 9 mi 3,500 ft 300° 300° 11 - 20 kt METAR CYKF 252200Z AUTO 30011G20KT 9SM OVC035 04/M01 A3000 RMK SLP169
16:00
V
4 °C 9 mi 4,300 ft 280° 280° 14 - 19 kt METAR CYKF 252100Z AUTO 28014G19KT 9SM OVC043 04/M01 A2999 RMK SLP164
15:00
V
4 °C 9 mi 4,100 ft 290° 290° 16 - 22 kt METAR CYKF 252000Z AUTO 29016G22KT 9SM FEW027 OVC041 04/M01 A2996 RMK SLP156
14:00
V
4 °C 9 mi 4,500 ft 290° 290° 20 - 25 kt METAR CYKF 251900Z AUTO 29020G25KT 9SM OVC045 04/M02 A2994 RMK SLP149
13:00
M
4 °C 9 mi 2,700 ft 300° 300° 19 - 26 kt METAR CYKF 251800Z AUTO 30019G26KT 9SM BKN027 OVC032 04/M01 A2995 RMK ICE MISG SLP150
12:00
V
5 °C 9 mi 4,500 ft 290° 290° 20 - 26 kt METAR CYKF 251700Z AUTO 29020G26KT 9SM FEW027 OVC045 05/M00 A2993 RMK SLP145
11:00
V
4 °C 9 mi 4,300 ft 290° 290° 20 - 26 kt METAR CYKF 251600Z AUTO 29020G26KT 9SM FEW023 OVC043 04/M00 A2994 RMK SLP148
10:00
V
4 °C 9 mi 3,800 ft 290° 290° 15 - 24 kt METAR CYKF 251500Z AUTO 29015G24KT 9SM SCT019 SCT025 OVC038 04/01 A2992 RMK SLP143
09:57
M
4 °C 9 mi 2,500 ft 280° 280° 16 - 23 kt METAR CYKF 251457Z AUTO 28016G23KT 9SM SCT019 BKN025 OVC036 04/01 A2992 RMK SLP144
09:55
M
4 °C 9 mi 2,500 ft 290° 290° 14 - 23 kt SPECI CYKF 251455Z AUTO 29014G23KT 9SM SCT019 BKN025 OVC036 04/01 A2992 RMK SLP144
09:44
M
4 °C 9 mi 2,400 ft 300° 300° 15 - 22 kt METAR CYKF 251444Z AUTO 30015G22KT 9SM -RA SCT019 BKN024 OVC036 04/01 A2992 RMK SLP143
09:37
M
4 °C 9 mi 2,900 ft 290° 290° 16 - 26 kt METAR CYKF 251437Z AUTO 29016G26KT 9SM SCT019 SCT023 BKN029 OVC036 04/01 A2992 RMK SLP143
09:25
M
4 °C 9 mi 2,400 ft 290° 290° 18 - 23 kt METAR CYKF 251425Z AUTO 29018G23KT 9SM -RA SCT019 BKN024 BKN030 OVC038 04/01 A2992 RMK SLP141
09:08
V
4 °C 9 mi 3,400 ft 290° 290° 15 - 20 kt METAR CYKF 251408Z AUTO 29015G20KT 9SM -RA SCT028 OVC034 04/01 A2991 RMK SLP139
08:53
V
4 °C 9 mi 3,200 ft 300° 300° 14 - 23 kt METAR CYKF 251353Z AUTO 30014G23KT 9SM FEW017 SCT021 OVC032 04/01 A2991 RMK SLP138
08:19
M
4 °C 9 mi 1,200 ft 300° 300° 19 - 27 kt METAR CYKF 251319Z AUTO 30019G27KT 9SM BKN012 OVC017 04/02 A2990 RMK SLP136
08:03
I
4 °C 6 mi 800 ft 290° 290° 22 - 29 kt METAR CYKF 251303Z AUTO 29022G29KT 6SM BR BKN008 OVC013 04/02 A2990 RMK SLP135
08:00
I
4 °C 5 mi 800 ft 300° 300° 15 - 27 kt METAR CYKF 251300Z AUTO 30015G27KT 5SM BR OVC008 04/02 A2989 RMK SLP132
07:51
I
4 °C 5 mi 800 ft 290° 290° 17 - 23 kt METAR CYKF 251251Z AUTO 29017G23KT 5SM -RA BR OVC008 04/03 A2988 RMK SLP131
07:39
I
4 °C 5 mi 600 ft 300° 300° 18 - 25 kt METAR CYKF 251239Z AUTO 30018G25KT 5SM -RA BR OVC006 04/03 A2987 RMK SLP126
07:14
I
4 °C 5 mi 800 ft 300° 300° 19 - 25 kt METAR CYKF 251214Z AUTO 30019G25KT 5SM BR OVC008 04/03 A2986 RMK SLP122
07:00
I
4 °C 9 mi 800 ft 300° 300° 17 - 23 kt METAR CYKF 251200Z AUTO 30017G23KT 9SM OVC008 04/03 A2985 RMK SLP118
06:52
I
4 °C 6 mi 800 ft 300° 300° 16 - 24 kt METAR CYKF 251152Z AUTO 30016G24KT 6SM BR OVC008 04/03 A2985 RMK PRESRR SLP118
06:48
I
4 °C 3 mi 800 ft 300° 300° 16 - 26 kt SPECI CYKF 251148Z AUTO 30016G26KT 3SM BR OVC008 04/03 A2985 RMK SLP117
06:41
I
5 °C 2½ mi 800 ft 300° 300° 17 - 26 kt METAR CYKF 251141Z AUTO 30017G26KT 2 1/2SM BR OVC008 05/03 A2984 RMK SLP114
06:38
I
5 °C 3 mi 800 ft 300° 300° 18 - 25 kt METAR CYKF 251138Z AUTO 30018G25KT 3SM BR OVC008 05/04 A2984 RMK SLP114
06:24
I
5 °C 3 mi 600 ft 300° 300° 16 - 25 kt METAR CYKF 251124Z AUTO 30016G25KT 3SM -RA BR OVC006 05/04 A2983 RMK SLP111
06:02
I
5 °C 2 mi 600 ft 290° 290° 16 - 23 kt METAR CYKF 251102Z AUTO 29016G23KT 2SM -RA BR OVC006 05/04 A2982 RMK SLP109
06:00
I
5 °C 2 mi 600 ft 280° 280° 17 - 23 kt METAR CYKF 251100Z AUTO 28017G23KT 2SM BR OVC006 05/04 A2982 RMK SLP109
05:52
I
5 °C 2½ mi 600 ft 280° 280° 17 - 24 kt METAR CYKF 251052Z AUTO 28017G24KT 2 1/2SM BR OVC006 05/04 A2982 RMK SLP108
05:00
I
6 °C 4 mi 600 ft 270° 270° 17 - 25 kt METAR CYKF 251000Z AUTO 27017G25KT 4SM BR OVC006 06/05 A2981 RMK SLP103
04:55
I
6 °C 3 mi 600 ft 270° 270° 15 - 26 kt METAR CYKF 250955Z AUTO 27015G26KT 3SM -RA BR OVC006 06/05 A2981 RMK SLP103
04:33
I
6 °C 2 mi 600 ft 270° 270° 15 - 25 kt METAR CYKF 250933Z AUTO 27015G25KT 2SM -RA BR OVC006 06/05 A2980 RMK SLP099
04:00
I
6 °C 3 mi 800 ft 260° 260° 13 - 20 kt METAR CYKF 250900Z AUTO 26013G20KT 3SM BR OVC008 06/05 A2981 RMK SLP102
03:15
I
6 °C 5 mi 800 ft 250° 250° 12 kt METAR CYKF 250815Z AUTO 25012KT 5SM BR OVC008 06/05 A2982 RMK SLP107
03:03
I
6 °C 6 mi 800 ft 240° 240° 12 - 17 kt METAR CYKF 250803Z AUTO 24012G17KT 6SM BR OVC008 06/05 A2982 RMK SLP108
03:00
I
6 °C 4 mi 600 ft 250° 250° 10 - 19 kt METAR CYKF 250800Z AUTO 25010G19KT 4SM BR OVC006 06/06 A2982 RMK SLP106
02:56
I
6 °C 3 mi 600 ft 250° 250° 11 - 19 kt METAR CYKF 250756Z AUTO 25011G19KT 3SM BR OVC006 06/06 A2982 RMK SLP108
02:39
I
6 °C 2 mi 800 ft 240° 240° 14 - 19 kt METAR CYKF 250739Z AUTO 24014G19KT 2SM -RA BR BKN008 OVC014 06/06 A2983 RMK SLP111
02:32
I
6 °C 1¾ mi 800 ft 240° 240° 12 - 18 kt METAR CYKF 250732Z AUTO 24012G18KT 1 3/4SM -RA BR BKN008 BKN014 OVC022 06/06 A2984 RMK SLP113
02:29
I
6 °C 2½ mi 1,000 ft 240° 240° 13 - 18 kt METAR CYKF 250729Z AUTO 24013G18KT 2 1/2SM BR BKN010 BKN014 OVC022 06/06 A2984 RMK SLP113
02:26
M
6 °C 4 mi 1,000 ft 240° 240° 11 - 17 kt SPECI CYKF 250726Z AUTO 24011G17KT 4SM BR BKN010 BKN017 OVC023 06/05 A2984 RMK SLP113
02:22
M
6 °C 8 mi 1,000 ft 240° 240° 13 - 18 kt METAR CYKF 250722Z AUTO 24013G18KT 8SM BKN010 BKN015 OVC021 06/05 A2984 RMK SLP113
02:12
M
6 °C 6 mi 1,000 ft 230° 230° 13 - 18 kt METAR CYKF 250712Z AUTO 23013G18KT 6SM -RA BR BKN010 BKN013 BKN018 OVC023 06/06 A2984 RMK SLP113
02:00
I
6 °C 3 mi 1,000 ft 240° 240° 9 - 16 kt METAR CYKF 250700Z AUTO 24009G16KT 3SM -RA BR BKN010 BKN013 OVC017 06/05 A2985 RMK PCPN 0.5MM PAST HR SLP115
01:41
M
6 °C 5 mi 1,700 ft 230° 230° 9 kt METAR CYKF 250641Z AUTO 23009KT 5SM -RA BR SCT012 BKN017 BKN041 OVC050 06/05 A2985 RMK SLP119
01:36
M
6 °C 8 mi 2,000 ft 240° 240° 8 kt METAR CYKF 250636Z AUTO 24008KT 8SM -RA SCT015 BKN020 BKN040 OVC050 06/05 A2986 RMK SLP120
01:22
V
6 °C 6 mi 4,000 ft 240° 240° 8 kt METAR CYKF 250622Z AUTO 24008KT 6SM -RA BR BKN040 OVC050 06/05 A2986 RMK SLP122
01:03
V
6 °C 5 mi 4,200 ft 240° 240° 8 kt METAR CYKF 250603Z AUTO 24008KT 5SM -RA BR BKN042 OVC049 06/04 A2987 RMK SLP125
01:00
V
6 °C 7 mi 4,500 ft 250° 250° 9 kt METAR CYKF 250600Z AUTO 25009KT 7SM -RA OVC045 06/04 A2987 RMK SLP124
00:00
V
8 °C 9 mi 7,100 ft 220° 220° 11 - 16 kt METAR CYKF 250500Z AUTO 22011G16KT 9SM -RA OVC071 08/00 A2990 RMK PRESFR SLP133

November 24, 2022

Time Code Weather Temp. Visibility Ceiling Wind METAR/SPECI
23:00
V
6 °C 9 mi 10,000 ft 200° 200° 7 kt METAR CYKF 250400Z AUTO 20007KT 9SM OVC100 06/M01 A2991 RMK SLP140
22:00
V
6 °C 9 mi 10,000 ft 190° 190° 7 kt METAR CYKF 250300Z AUTO 19007KT 9SM FEW055 OVC100 06/M02 A2995 RMK SLP153
21:00
V
6 °C 9 mi 10,000 ft 210° 210° 8 kt METAR CYKF 250200Z AUTO 21008KT 9SM SCT047 OVC100 06/M02 A2999 RMK SLP168
20:46
V
6 °C 9 mi 11,000 ft 200° 200° 5 kt SPECI CYKF 250146Z AUTO 20005KT 9SM -RA BKN110 OVC140 06/M02 A2999 RMK SLP167
20:00
V
6 °C 9 mi 12,000 ft 190° 190° 7 kt METAR CYKF 250100Z AUTO 19007KT 9SM FEW100 BKN120 06/M02 A3002 RMK SLP180
19:00
V
6 °C 9 mi 15,000 ft 190° 190° 9 kt METAR CYKF 250000Z AUTO 19009KT 9SM SCT120 OVC150 06/M02 A3005 RMK SLP189
18:00
V
6 °C 9 mi 14,000 ft 180° 180° 6 kt METAR CYKF 242300Z AUTO 18006KT 9SM BKN140 BKN230 06/M02 A3005 RMK SLP189
17:00
V
6 °C 9 mi - 190° 190° 5 kt METAR CYKF 242200Z AUTO 19005KT 9SM SCT240 06/M02 A3007 RMK SLP195
16:00
V
9 °C 9 mi - 200° 200° 7 kt METAR CYKF 242100Z AUTO 20007KT 9SM CLR 09/M02 A3009 RMK SLP201
15:00
V
11 °C 9 mi - 210° 210° 13 kt METAR CYKF 242000Z AUTO 21013KT 9SM CLR 11/M01 A3010 RMK SLP204
14:00
V
10 °C 9 mi - 200° 200° 9 kt METAR CYKF 241900Z AUTO 20009KT 9SM CLR 10/03 A3013 RMK SLP214
13:00
V
9 °C 9 mi 22,000 ft 200° 200° 7 kt METAR CYKF 241800Z AUTO 20007KT 9SM BKN220 09/03 A3016 RMK SLP224
12:04
V
6 °C 6 mi - 180° 180° 4 kt SPECI CYKF 241704Z AUTO 18004KT 6SM BR CLR 06/05 A3017 RMK SLP228
12:00
V
5 °C 5 mi - 190° 190° 7 kt METAR CYKF 241700Z AUTO 19007KT 5SM BR CLR 05/05 A3018 RMK SLP233
11:31
I
3 °C 3 mi - 190° 190° 3 kt METAR CYKF 241631Z AUTO 19003KT 3SM BR CLR 03/03 A3019 RMK SLP236
11:10
I
2 °C 2 mi - 200° 200° 4 kt METAR CYKF 241610Z AUTO 20004KT 2SM BR SCT001 02/02 A3020 RMK SLP240
11:00
L
2 °C 1 mi 100 ft 180° 180° 4 kt METAR CYKF 241600Z AUTO 18004KT 140V200 1SM -RA BR BKN001 02/02 A3021 RMK SLP245
10:54
L
2 °C ½ mi 100 ft 180° 180° 4 kt METAR CYKF 241554Z AUTO 18004KT 1/2SM -RA FG OVC001 02/01 A3021 RMK SLP246
10:50
L
1 °C ⅛ mi 100 ft 170° 170° 3 kt SPECI CYKF 241550Z AUTO 17003KT 130V190 1/8SM -RA FG VV001 01/00 A3021 RMK SLP245
10:41
L
0 °C ⅛ mi 200 ft Var Var 2 kt METAR CYKF 241541Z AUTO VRB02KT 1/8SM +SNRA VV002 00/M00 A3022 RMK SLP247
10:37
L
0 °C ⅛ mi 200 ft Var Var 2 kt METAR CYKF 241537Z AUTO VRB02KT 1/8SM +SN VV002 M00/M00 A3022 RMK SLP249
10:34
L
0 °C ⅛ mi 200 ft Var Var 2 kt SPECI CYKF 241534Z AUTO VRB02KT 1/8SM -SN VV002 M00/M00 A3022 RMK SLP247
10:32
L
0 °C ⅛ mi 200 ft Var Var 2 kt METAR CYKF 241532Z AUTO VRB02KT 1/8SM -SNRA VV002 M00/M01 A3022 RMK SLP248
10:28
L
0 °C ⅛ mi 200 ft Var Var 2 kt METAR CYKF 241528Z AUTO VRB02KT 1/8SM +SN VV002 M00/M01 A3022 RMK SLP248
10:25
L
0 °C ⅛ mi 200 ft Var Var 2 kt SPECI CYKF 241525Z AUTO VRB02KT 1/8SM -SN VV002 M00/M01 A3022 RMK SLP248
10:19
L
0 °C 0 mi 200 ft Var 000° 0 kt METAR CYKF 241519Z AUTO 00000KT 0SM +SN VV002 M00/M01 A3022 RMK SLP249
10:16
L
-1 °C 0 mi 200 ft Var 000° 0 kt METAR CYKF 241516Z AUTO 00000KT 0SM +SN VV002 M01/M01 A3022 RMK SLP250
10:13
L
-1 °C 0 mi 200 ft Var Var 2 kt METAR CYKF 241513Z AUTO VRB02KT 0SM -SNRA VV002 M01/M01 A3023 RMK SLP251
10:05
L
-1 °C 0 mi 100 ft Var Var 2 kt METAR CYKF 241505Z AUTO VRB02KT 0SM -SN VV001 M01/M01 A3023 RMK SLP251
09:58
L
-1 °C 0 mi 100 ft Var Var 2 kt METAR CYKF 241458Z AUTO VRB02KT 0SM +SN VV001 M01/M01 A3023 RMK SLP252
09:43
L
-1 °C 0 mi 100 ft Var Var 2 kt METAR CYKF 241443Z AUTO VRB02KT 0SM -SN VV001 M01/M02 A3023 RMK SLP253
09:33
L
-2 °C 0 mi 100 ft Var Var 2 kt METAR CYKF 241433Z AUTO VRB02KT 0SM +SN VV001 M02/M02 A3023 RMK SLP253
09:25
L
-2 °C 0 mi 100 ft 140° 140° 2 kt METAR CYKF 241425Z AUTO 14002KT 0SM +SN VV001 M02/M02 A3023 RMK SLP253
09:21
L
-2 °C 0 mi 100 ft 130° 130° 2 kt METAR CYKF 241421Z AUTO 13002KT 0SM -SN VV001 M02/M02 A3023 RMK SLP253
09:16
L
-2 °C 0 mi 100 ft Var Var 2 kt METAR CYKF 241416Z AUTO VRB02KT 0SM FZFG VV001 M02/M02 A3023 RMK SLP252
09:12
L
-2 °C 0 mi 100 ft Var Var 2 kt METAR CYKF 241412Z AUTO VRB02KT 0SM -SN VV001 M02/M02 A3023 RMK SLP252
09:07
L
-2 °C 0 mi 100 ft Var 000° 0 kt SPECI CYKF 241407Z AUTO 00000KT 0SM -SNRA VV001 M02/M03 A3023 RMK SLP253
09:04
L
-2 °C 0 mi 100 ft Var 000° 0 kt METAR CYKF 241404Z AUTO 00000KT 0SM -SN VV001 M02/M03 A3023 RMK SLP253
09:00
L
-2 °C 0 mi 100 ft Var 000° 0 kt METAR CYKF 241400Z AUTO 00000KT 0SM FZFG VV001 M02/M03 A3023 RMK SLP253
08:48
L
-2 °C 0 mi 100 ft Var 000° 0 kt SPECI CYKF 241348Z AUTO 00000KT 0SM FZFG VV001 M02/M03 A3023 RMK SLP254
08:17
L
-3 °C 0 mi 100 ft Var 000° 0 kt METAR CYKF 241317Z AUTO 00000KT 0SM +SN VV001 M03/M03 A3023 RMK SLP256
08:00
L
-3 °C 0 mi 100 ft Var 000° 0 kt METAR CYKF 241300Z AUTO 00000KT 0SM FZFG VV001 M03/M04 A3023 RMK SLP256
07:47
L
-3 °C 0 mi 100 ft Var 000° 0 kt SPECI CYKF 241247Z AUTO 00000KT 0SM FZFG VV001 M03/M04 A3023 RMK SLP254
07:27
L
-4 °C 0 mi 100 ft Var Var 2 kt METAR CYKF 241227Z AUTO VRB02KT 0SM +SN VV001 M04/M04 A3023 RMK SLP255
07:20
L
-3 °C 0 mi 100 ft Var 000° 0 kt METAR CYKF 241220Z AUTO 00000KT 0SM FZFG VV001 M03/M04 A3023 RMK SLP256
07:05
L
-4 °C ⅛ mi 100 ft Var 000° 0 kt SPECI CYKF 241205Z AUTO 00000KT 1/8SM -SN VV001 M04/M04 A3023 RMK SLP255
07:00
L
-4 °C ⅛ mi 100 ft Var 000° 0 kt METAR CYKF 241200Z AUTO 00000KT 1/8SM +SN VV001 M04/M04 A3023 RMK SLP255
06:31
L
-3 °C ⅛ mi 100 ft Var 000° 0 kt METAR CYKF 241131Z AUTO 00000KT 1/8SM +SN VV001 M03/M04 A3024 RMK SLP257
06:28
L
-3 °C ⅛ mi 100 ft Var 000° 0 kt METAR CYKF 241128Z AUTO 00000KT 1/8SM -SN VV001 M03/M04 A3024 RMK SLP257
06:09
L
-3 °C ⅛ mi 100 ft Var 000° 0 kt METAR CYKF 241109Z AUTO 00000KT 1/8SM +SN VV001 M03/M04 A3023 RMK SLP256
06:01
L
-3 °C ⅛ mi 100 ft 340° 340° 2 kt METAR CYKF 241101Z AUTO 34002KT 1/8SM FZFG VV001 M03/M03 A3023 RMK SLP256
06:00
L
-3 °C ⅛ mi 100 ft Var 000° 0 kt METAR CYKF 241100Z AUTO 00000KT 1/8SM -SN VV001 M03/M03 A3023 RMK SLP255
05:49
L
-3 °C ⅛ mi 100 ft Var 000° 0 kt METAR CYKF 241049Z AUTO 00000KT 1/8SM -SN VV001 M03/M04 A3023 RMK SLP256
05:32
L
-3 °C ⅛ mi 100 ft Var 000° 0 kt METAR CYKF 241032Z AUTO 00000KT 1/8SM +SN VV001 M03/M03 A3024 RMK SLP258
05:09
L
-3 °C ⅛ mi 100 ft Var 000° 0 kt METAR CYKF 241009Z AUTO 00000KT 1/8SM FZFG VV001 M03/M03 A3024 RMK SLP259
05:00
L
-3 °C ⅛ mi 100 ft Var 000° 0 kt METAR CYKF 241000Z AUTO 00000KT 1/8SM +SN VV001 M03/M03 A3024 RMK SLP256

We and third parties follow your internet behavior on our website with cookies. If you continue, we assume you agree with our cookie policy.